Terminal Aerodrome Forecast
Issued by NWS Chicago, IL

Home | Current Version | Previous Version | Graphics & Text | Print | Product List | Glossary On
Versions: 1 2 3 4 5 6 7 8 9 10 11 12 13 14 15 16 17 18 19 20 21 22 23 24 25 26 27 28 29
000
FTUS43 KLOT 192320
TAFRFD
TAF
KRFD 192320Z 2000/2024 03006KT P6SM FEW030 SCT120 BKN250
     FM200400 07005KT P6SM VCSH BKN080
     FM200600 03013G18KT 6SM -SHRA BR SCT007 BKN010 OVC080
      TEMPO 2006/2008 3SM SHRA BR OVC007
     FM201300 06013KT 6SM BR VCSH BKN007 OVC012
     FM201700 06011KT P6SM SCT008 BKN018
     FM202200 07010KT P6SM FEW012 BKN035=

USA.gov is the U.S. government's official web portal to all federal, state and local government web resources and services.